Time;durP1;ratioP1;P1;durP2;ratioP2;P2;SDS_P1;SDS_P2;PMS_P1;PMS_P2;Temp;Humidity;BMP_temperature;BMP_pressure;BME280_temperature;BME280_humidity;BME280_pressure;Samples;Min_cycle;Max_cycle;Signal;HPM_P1;HPM_P2
2023/06/02 00:01:13;;;;;;;10.40;5.28;;;12.20;99.90;;;-144.05;51.12;56814.84;5074755;28;20032;-78
2023/06/02 00:03:40;;;;;;;6.80;4.63;;;12.20;99.90;;;-144.05;51.53;56840.34;5058449;28;20135;-78
2023/06/02 00:06:09;;;;;;;6.97;4.40;;;12.20;99.90;;;-144.05;51.40;56836.09;5058722;28;20028;-79
2023/06/02 00:08:40;;;;;;;9.98;4.43;;;12.20;99.90;;;-144.05;51.48;56848.84;5074951;28;20354;-77
2023/06/02 00:11:11;;;;;;;10.55;4.47;;;12.20;99.90;;;-144.05;51.36;56842.47;5076411;28;20028;-77
2023/06/02 00:13:38;;;;;;;10.60;4.93;;;12.20;99.90;;;-144.05;51.63;56823.34;5075599;28;20028;-79
2023/06/02 00:16:06;;;;;;;11.48;4.20;;;12.10;99.90;;;-144.05;51.78;56848.84;5075241;28;20032;-78
2023/06/02 00:18:37;;;;;;;10.77;5.10;;;12.20;99.90;;;-144.05;51.89;56850.97;5074645;28;20090;-77
2023/06/02 00:21:08;;;;;;;8.43;5.32;;;12.10;99.90;;;-144.05;52.09;56821.22;5075521;28;20063;-79
2023/06/02 00:23:34;;;;;;;9.80;4.60;;;12.10;99.90;;;-144.05;52.12;56827.59;5057795;28;20513;-78
2023/06/02 00:26:01;;;;;;;9.27;4.40;;;12.10;99.90;;;-144.05;52.57;56823.34;5076674;28;20115;-80
2023/06/02 00:28:28;;;;;;;9.00;4.53;;;12.10;99.90;;;-144.05;52.73;56842.47;5076043;28;20016;-79
2023/06/02 00:30:54;;;;;;;10.98;4.55;;;12.10;99.90;;;-144.05;52.87;56855.22;5075527;28;20037;-78
2023/06/02 00:33:20;;;;;;;10.40;4.60;;;12.10;99.90;;;-144.05;52.91;56838.22;5076644;28;20032;-78
2023/06/02 00:35:46;;;;;;;7.25;4.30;;;12.10;99.90;;;-144.05;53.01;56846.72;5075908;28;20084;-78
2023/06/02 00:38:13;;;;;;;9.80;4.63;;;12.10;99.90;;;-144.05;52.68;56823.34;5074885;28;20172;-78
2023/06/02 00:40:39;;;;;;;14.88;5.05;;;12.00;99.90;;;-144.05;52.43;56838.22;5076056;28;20496;-79
2023/06/02 00:43:05;;;;;;;7.82;4.57;;;12.00;99.90;;;-144.05;53.11;56850.97;5057482;28;20112;-77
2023/06/02 00:45:32;;;;;;;9.20;4.85;;;12.00;99.90;;;-144.05;53.17;56825.47;5075652;28;20060;-78
2023/06/02 00:48:01;;;;;;;13.07;4.18;;;12.00;99.90;;;-144.05;53.01;56842.47;5076989;28;20328;-79
2023/06/02 00:50:28;;;;;;;18.90;4.72;;;12.00;99.90;;;-144.05;52.85;56797.88;5073978;28;20028;-78
2023/06/02 00:52:57;;;;;;;13.32;4.70;;;12.00;99.90;;;-144.05;52.67;56844.59;5075192;28;20120;-78
2023/06/02 00:55:23;;;;;;;9.50;3.92;;;11.90;99.90;;;-144.05;52.62;56853.09;5076294;28;20063;-78
2023/06/02 00:57:51;;;;;;;13.35;4.15;;;11.80;99.90;;;-144.05;52.84;56859.47;5075793;28;20020;-76
2023/06/02 01:00:20;;;;;;;14.20;3.97;;;11.80;99.90;;;-144.05;52.63;56844.59;5075998;28;20021;-77
2023/06/02 01:02:46;;;;;;;10.93;5.57;;;11.70;99.90;;;-144.05;52.39;56833.97;5076492;28;20432;-78
2023/06/02 01:05:14;;;;;;;16.45;5.68;;;11.60;99.90;;;-144.05;52.36;56848.84;5077177;28;20134;-77
2023/06/02 01:07:47;;;;;;;9.38;5.00;;;11.70;99.90;;;-144.05;52.36;56857.34;5076571;28;20048;-78
2023/06/02 01:10:15;;;;;;;13.75;6.75;;;11.60;99.90;;;-144.05;52.47;56823.34;5080117;28;20032;-78
2023/06/02 01:12:44;;;;;;;10.85;6.28;;;11.60;99.90;;;-144.05;52.29;56823.34;5079837;28;20024;-78
2023/06/02 01:15:11;;;;;;;13.45;5.57;;;11.50;99.90;;;-144.05;52.07;56844.59;5078697;28;20064;-77
2023/06/02 01:17:37;;;;;;;11.95;5.43;;;11.50;99.90;;;-144.05;51.81;56861.56;5079967;28;20044;-79
2023/06/02 01:20:08;;;;;;;10.18;6.30;;;11.50;99.90;;;-144.05;51.69;56848.84;5078467;28;20051;-76
2023/06/02 01:23:15;;;;;;;7.88;5.95;;;11.50;99.90;;;-144.05;51.57;56853.09;5077783;28;20085;-80
2023/06/02 01:25:41;;;;;;;;;;;11.50;99.90;;;-144.05;51.30;56831.84;5078789;28;20032;-77
2023/06/02 01:28:09;;;;;;;11.65;5.97;;;11.50;99.90;;;-144.05;51.18;56842.47;5079394;28;19909;-78
2023/06/02 01:30:36;;;;;;;15.35;5.53;;;11.50;99.90;;;-144.05;51.09;56844.59;5079282;28;20059;-78
2023/06/02 01:33:18;;;;;;;12.27;6.65;;;11.50;99.90;;;-144.05;51.04;56848.84;5080755;28;20033;-79
2023/06/02 01:35:54;;;;;;;11.55;7.15;;;11.40;99.90;;;-144.05;51.06;56840.34;5081811;28;20029;-78
2023/06/02 01:38:24;;;;;;;15.20;6.35;;;11.40;99.90;;;-144.05;51.32;56827.59;5081441;28;20024;-78
2023/06/02 01:40:56;;;;;;;16.50;6.57;;;11.40;99.90;;;-144.05;51.13;56848.84;5062751;28;20036;-79
2023/06/02 01:43:22;;;;;;;10.88;5.50;;;11.40;99.90;;;-144.05;50.99;56842.47;5080995;28;20053;-78
2023/06/02 01:45:49;;;;;;;10.57;5.82;;;11.40;99.90;;;-144.05;51.10;56831.84;5079467;28;20116;-78
2023/06/02 01:48:17;;;;;;;7.47;5.30;;;11.40;99.90;;;-144.05;51.09;56867.94;5081464;28;20021;-78
2023/06/02 01:50:44;;;;;;;11.68;6.00;;;11.30;99.90;;;-144.05;51.32;56844.59;5080983;28;20024;-78
2023/06/02 01:53:09;;;;;;;9.98;5.38;;;11.30;99.90;;;-144.05;51.56;56838.22;5079441;28;20596;-78
2023/06/02 01:55:35;;;;;;;12.00;5.07;;;11.20;99.90;;;-144.05;51.13;56836.09;5080099;28;20054;-79
2023/06/02 01:58:03;;;;;;;11.98;5.20;;;11.20;99.90;;;-144.05;51.67;56859.47;5063276;28;20021;-77
2023/06/02 02:00:29;;;;;;;12.95;4.68;;;11.20;99.90;;;-144.05;51.77;56827.59;5080362;28;20040;-78
2023/06/02 02:02:55;;;;;;;13.75;4.97;;;11.20;99.90;;;-144.05;51.40;56831.84;5081508;28;20028;-77
2023/06/02 02:05:21;;;;;;;9.52;4.57;;;11.10;99.90;;;-144.05;51.04;56846.72;5081327;28;20028;-77
2023/06/02 02:07:47;;;;;;;14.18;5.05;;;11.10;99.90;;;-144.05;51.06;56842.47;5080305;28;20032;-78
2023/06/02 02:10:14;;;;;;;12.40;4.82;;;11.10;99.90;;;-144.05;51.54;56848.84;5080018;28;20032;-77
2023/06/02 02:12:41;;;;;;;15.10;6.32;;;11.20;99.90;;;-144.05;51.32;56861.56;5080041;28;20033;-78
2023/06/02 02:15:09;;;;;;;11.30;5.15;;;11.10;99.90;;;-144.05;51.59;56848.84;5080316;28;20074;-77
2023/06/02 02:17:36;;;;;;;11.10;4.65;;;11.10;99.90;;;-144.05;51.47;56850.97;5080461;28;20024;-77
2023/06/02 02:20:05;;;;;;;10.52;4.40;;;11.00;99.90;;;-144.05;51.53;56867.94;5079480;28;20047;-78
2023/06/02 02:22:32;;;;;;;17.80;5.25;;;11.00;99.90;;;-144.05;51.93;56848.84;5080687;28;20092;-78
2023/06/02 02:24:59;;;;;;;13.32;4.80;;;11.00;99.90;;;-144.05;51.76;56844.59;5079902;28;20055;-79
2023/06/02 02:27:25;;;;;;;9.30;4.93;;;11.10;99.90;;;-144.05;51.50;56844.59;5081316;28;20025;-78
2023/06/02 02:29:51;;;;;;;9.18;4.72;;;11.00;99.90;;;-144.05;51.20;56863.69;5080632;28;20025;-78
2023/06/02 02:32:17;;;;;;;12.95;6.13;;;11.00;99.90;;;-144.05;51.29;56850.97;5079476;28;20412;-78
2023/06/02 02:34:45;;;;;;;13.82;6.05;;;11.10;99.90;;;-144.05;51.11;56848.84;5080587;28;20032;-74
2023/06/02 02:37:12;;;;;;;9.18;4.60;;;11.00;99.90;;;-144.05;51.40;56855.22;5062593;28;20501;-78
2023/06/02 02:39:39;;;;;;;12.05;4.65;;;11.00;99.90;;;-144.05;51.57;56855.22;5079175;28;20033;-80
2023/06/02 02:42:05;;;;;;;11.27;4.00;;;11.00;99.90;;;-144.05;51.53;56863.69;5079506;28;20024;-79
2023/06/02 02:44:31;;;;;;;10.93;4.05;;;11.00;99.90;;;-144.05;51.20;56848.84;5083046;28;20028;-80
2023/06/02 02:46:58;;;;;;;14.65;3.92;;;10.90;99.90;;;-144.05;51.28;56838.22;5080299;28;20024;-78
2023/06/02 02:49:24;;;;;;;13.23;4.53;;;10.90;99.90;;;-144.05;51.20;56855.22;5078736;28;20021;-79
2023/06/02 02:51:50;;;;;;;14.93;4.85;;;10.90;99.90;;;-144.05;51.21;56870.06;5079687;28;20029;-78
2023/06/02 02:54:16;;;;;;;15.75;4.72;;;10.80;99.90;;;-144.05;51.16;56840.34;5078560;28;20044;-79
2023/06/02 02:56:43;;;;;;;13.93;4.32;;;10.80;99.90;;;-144.05;51.01;56836.09;5066322;28;20036;-80
2023/06/02 02:59:12;;;;;;;11.48;4.00;;;10.80;99.90;;;-144.05;51.29;56838.22;5087936;28;20058;-79
2023/06/02 03:01:43;;;;;;;14.90;3.88;;;10.80;99.90;;;-144.05;51.27;56848.84;5069530;28;20100;-79
2023/06/02 03:04:10;;;;;;;13.25;4.10;;;10.80;99.90;;;-144.05;50.89;56848.84;5070236;28;20050;-79
2023/06/02 03:06:43;;;;;;;17.15;4.63;;;10.80;99.90;;;-144.05;50.74;56850.97;5083659;28;20097;-78
2023/06/02 03:09:09;;;;;;;13.90;4.20;;;10.80;99.90;;;-144.05;50.68;56846.72;5079691;28;20063;-79
2023/06/02 03:11:35;;;;;;;11.75;5.15;;;10.80;99.90;;;-144.05;50.75;56861.56;5078490;28;20056;-79
2023/06/02 03:14:01;;;;;;;12.75;4.55;;;10.70;99.90;;;-144.05;50.82;56850.97;5080144;28;20078;-78
2023/06/02 03:16:28;;;;;;;12.48;4.07;;;10.70;99.90;;;-144.05;51.04;56857.34;5076839;28;20107;-78
2023/06/02 03:18:57;;;;;;;10.13;3.90;;;10.80;99.90;;;-144.05;51.31;56842.47;5078346;28;20089;-76
2023/06/02 03:21:23;;;;;;;10.80;3.90;;;10.70;99.90;;;-144.05;51.21;56853.09;5079219;28;20033;-78
2023/06/02 03:23:50;;;;;;;7.28;3.60;;;10.80;99.90;;;-144.05;51.42;56857.34;5077856;28;20036;-78
2023/06/02 03:26:16;;;;;;;11.10;3.97;;;10.80;99.90;;;-144.05;51.39;56838.22;5079016;28;20025;-78
2023/06/02 03:28:42;;;;;;;17.35;4.13;;;10.80;99.90;;;-144.05;51.26;56831.84;5078742;28;20035;-77
2023/06/02 03:31:09;;;;;;;11.80;3.50;;;10.70;99.90;;;-144.05;51.28;56853.09;5077986;28;20486;-78
2023/06/02 03:33:35;;;;;;;10.68;3.10;;;10.80;99.90;;;-144.05;51.50;56861.56;5079486;28;20025;-78
2023/06/02 03:36:02;;;;;;;10.18;3.00;;;10.80;99.90;;;-144.05;51.09;56861.56;5078628;28;20028;-78
2023/06/02 03:38:27;;;;;;;13.10;3.75;;;10.70;99.90;;;-144.05;50.97;56829.72;5079404;28;20108;-79
2023/06/02 03:40:53;;;;;;;14.73;5.38;;;10.70;99.90;;;-144.05;50.87;56857.34;5075550;28;20035;-77
2023/06/02 03:43:19;;;;;;;20.38;5.25;;;10.80;99.90;;;-144.05;50.57;56838.22;5076566;28;20025;-76
2023/06/02 03:45:45;;;;;;;18.33;4.65;;;10.80;99.90;;;-144.05;50.61;56857.34;5077141;28;20102;-78
2023/06/02 03:48:12;;;;;;;14.43;5.40;;;10.80;99.90;;;-144.05;50.45;56865.81;5076897;28;20128;-77
2023/06/02 03:50:38;;;;;;;15.02;5.07;;;10.80;99.90;;;-144.05;50.44;56844.59;5076171;28;20024;-76
2023/06/02 03:53:05;;;;;;;14.20;4.30;;;10.80;99.90;;;-144.05;50.51;56848.84;5073320;28;20036;-76
2023/06/02 03:55:31;;;;;;;13.73;3.85;;;10.80;99.90;;;-144.05;50.46;56846.72;5088474;28;20304;-78
2023/06/02 03:57:57;;;;;;;12.18;4.80;;;10.80;99.90;;;-144.05;50.59;56846.72;5090242;28;20029;-81
2023/06/02 04:00:23;;;;;;;11.50;4.60;;;10.80;99.90;;;-144.05;50.60;56842.47;5081171;28;20331;-76
2023/06/02 04:02:49;;;;;;;10.55;4.28;;;10.70;99.90;;;-144.05;50.78;56865.81;5072211;28;20028;-78
2023/06/02 04:05:15;;;;;;;10.10;3.78;;;10.70;99.90;;;-144.05;50.56;56848.84;5073506;28;20039;-78
2023/06/02 04:07:41;;;;;;;13.55;4.78;;;10.80;99.90;;;-144.05;50.60;56838.22;5073767;28;20029;-76
2023/06/02 04:10:08;;;;;;;11.27;3.88;;;10.70;99.90;;;-144.05;50.81;56831.84;5099299;22;20027;-83
2023/06/02 04:12:34;;;;;;;10.75;4.00;;;10.70;99.90;;;-144.05;50.97;56859.47;5057638;28;20041;-81
2023/06/02 04:15:01;;;;;;;13.75;3.88;;;10.80;99.90;;;-144.05;51.05;56865.81;5075070;28;20518;-82
2023/06/02 04:17:27;;;;;;;17.58;3.63;;;10.80;99.90;;;-144.05;50.98;56872.19;5057406;28;20075;-80
2023/06/02 04:19:53;;;;;;;17.75;4.43;;;10.80;99.90;;;-144.05;50.97;56827.59;5076115;28;20544;-83
2023/06/02 04:22:19;;;;;;;12.80;3.80;;;10.70;99.90;;;-144.05;50.80;56831.84;5055596;28;20059;-81
2023/06/02 04:24:46;;;;;;;9.85;3.67;;;10.80;99.90;;;-144.05;50.36;56838.22;5055806;28;20059;-82
2023/06/02 04:27:16;;;;;;;16.67;3.42;;;10.70;99.90;;;-144.05;50.63;56844.59;5055739;28;20031;-82
2023/06/02 04:29:42;;;;;;;15.05;3.65;;;10.80;99.90;;;-144.05;50.44;56865.81;5055773;28;20090;-81
2023/06/02 04:32:08;;;;;;;13.60;4.18;;;10.70;99.90;;;-144.05;50.60;56863.69;5054173;28;20523;-82
2023/06/02 04:34:36;;;;;;;15.98;3.90;;;10.70;99.90;;;-144.05;50.29;56857.34;5055994;28;20319;-82
2023/06/02 04:37:02;;;;;;;11.63;3.78;;;10.90;99.90;;;-144.05;50.24;56865.81;5054962;28;20046;-81
2023/06/02 04:39:28;;;;;;;12.63;3.25;;;10.90;99.90;;;-144.05;49.82;56855.22;5057764;28;20100;-82
2023/06/02 04:41:57;;;;;;;13.57;3.67;;;11.00;99.90;;;-144.05;49.47;56840.34;5054057;28;20131;-81
2023/06/02 04:44:23;;;;;;;12.23;3.83;;;11.00;99.90;;;-144.05;49.10;56865.81;5056441;28;20028;-82
2023/06/02 04:46:49;;;;;;;11.75;3.85;;;11.00;99.90;;;-144.05;48.90;56836.09;5055714;28;20048;-83
2023/06/02 04:49:15;;;;;;;13.02;3.85;;;10.90;99.90;;;-144.05;49.25;56827.59;5055847;28;20025;-84
2023/06/02 04:51:41;;;;;;;11.70;3.15;;;10.90;99.90;;;-144.05;49.25;56840.34;5054629;28;20025;-84
2023/06/02 04:54:07;;;;;;;17.67;3.80;;;10.90;99.90;;;-144.05;49.26;56857.34;5054796;28;20063;-85
2023/06/02 04:56:36;;;;;;;8.43;2.90;;;10.80;99.90;;;-144.05;49.52;56855.22;5055548;28;20363;-83
2023/06/02 04:59:02;;;;;;;8.98;3.53;;;10.80;99.90;;;-144.05;49.67;56855.22;5054057;28;20037;-80
2023/06/02 05:01:28;;;;;;;11.40;3.75;;;10.90;99.90;;;-144.05;49.38;56855.22;5054619;28;20033;-83
2023/06/02 05:03:54;;;;;;;15.15;4.32;;;10.80;99.90;;;-144.05;49.85;56853.09;5058748;28;20032;-84
2023/06/02 05:06:20;;;;;;;13.00;4.07;;;10.90;99.90;;;-144.05;49.53;56863.69;5068540;28;20046;-85
2023/06/02 05:08:46;;;;;;;10.07;4.47;;;10.80;99.90;;;-144.05;49.52;56846.72;5056586;28;20096;-84
2023/06/02 05:11:12;;;;;;;21.35;4.60;;;10.90;99.90;;;-144.05;49.60;56857.34;5056236;28;20049;-84
2023/06/02 05:13:38;;;;;;;11.65;4.05;;;10.90;99.90;;;-144.05;49.51;56836.09;5056016;28;20029;-84
2023/06/02 05:16:04;;;;;;;12.55;4.43;;;10.90;99.90;;;-144.05;50.30;56853.09;5056353;28;20560;-84
2023/06/02 05:18:30;;;;;;;16.23;3.97;;;10.90;99.90;;;-144.05;50.16;56848.84;5054505;28;20039;-85
2023/06/02 05:20:56;;;;;;;14.15;3.88;;;10.90;99.90;;;-144.05;49.91;56853.09;5054845;28;20025;-83
2023/06/02 05:23:22;;;;;;;13.25;4.10;;;11.00;99.90;;;-144.05;49.69;56838.22;5058045;28;20032;-83
2023/06/02 05:25:51;;;;;;;25.30;4.68;;;11.00;99.90;;;-144.05;49.53;56859.47;5059970;28;20064;-83
2023/06/02 05:28:17;;;;;;;10.55;4.28;;;11.10;99.90;;;-144.05;49.69;56850.97;5055057;28;20029;-82
2023/06/02 05:30:43;;;;;;;12.20;4.03;;;11.10;99.90;;;-144.05;49.90;56863.69;5053772;28;20025;-84
2023/06/02 05:33:09;;;;;;;12.98;4.13;;;11.10;99.90;;;-144.05;49.86;56859.47;5053515;28;20193;-83
2023/06/02 05:35:35;;;;;;;15.90;4.47;;;11.10;99.90;;;-144.05;49.90;56846.72;5052943;28;20459;-82
2023/06/02 05:38:01;;;;;;;12.80;3.95;;;11.10;99.90;;;-144.05;50.17;56870.06;5053457;28;20025;-83
2023/06/02 05:40:27;;;;;;;17.95;4.13;;;11.10;99.90;;;-144.05;49.73;56814.84;5054380;28;20147;-83
2023/06/02 05:42:53;;;;;;;11.15;4.13;;;11.10;99.90;;;-144.05;49.80;56838.22;5054431;28;20060;-84
2023/06/02 05:45:18;;;;;;;12.60;4.70;;;11.10;99.90;;;-144.05;49.43;56870.06;5054397;28;20337;-81
2023/06/02 05:47:45;;;;;;;10.88;3.90;;;11.10;99.90;;;-144.05;49.81;56844.59;5054324;28;20522;-82
2023/06/02 05:50:11;;;;;;;15.57;4.80;;;11.10;99.90;;;-144.05;49.70;56865.81;5036143;28;20544;-82
2023/06/02 05:52:37;;;;;;;13.02;4.40;;;11.10;99.90;;;-144.05;49.16;56848.84;5054144;28;20025;-83
2023/06/02 05:55:03;;;;;;;14.23;4.50;;;11.20;99.90;;;-144.05;49.16;56823.34;5056394;28;20538;-83
2023/06/02 05:57:29;;;;;;;14.07;3.67;;;11.30;99.90;;;-144.05;49.27;56827.59;5058800;28;20108;-83
2023/06/02 05:59:55;;;;;;;16.58;4.82;;;11.40;99.90;;;-144.05;49.40;56831.84;5057375;28;20057;-83
2023/06/02 06:02:20;;;;;;;13.55;3.95;;;11.40;99.90;;;-144.05;48.89;56842.47;5058956;28;20056;-82
2023/06/02 06:04:46;;;;;;;12.77;3.47;;;11.40;99.90;;;-144.05;49.16;56855.22;5058329;28;20033;-82
2023/06/02 06:07:12;;;;;;;12.25;4.03;;;11.40;99.90;;;-144.05;48.87;56848.84;5057940;28;20383;-83
2023/06/02 06:09:38;;;;;;;13.25;3.55;;;11.40;99.90;;;-144.05;48.46;56855.22;5058015;28;20112;-82
2023/06/02 06:12:04;;;;;;;11.90;4.47;;;11.30;99.90;;;-144.05;48.72;56859.47;5057392;28;20544;-84
2023/06/02 06:14:30;;;;;;;15.05;4.43;;;11.40;99.90;;;-144.05;49.16;56857.34;5057520;28;20036;-81
2023/06/02 06:16:56;;;;;;;11.38;4.05;;;11.40;99.90;;;-144.05;49.23;56859.47;5057132;28;20075;-80
2023/06/02 06:19:22;;;;;;;10.88;4.15;;;11.50;99.90;;;-144.05;48.55;56821.22;5056813;28;20029;-82
2023/06/02 06:21:48;;;;;;;17.67;4.93;;;11.40;99.90;;;-144.05;48.77;56844.59;5055858;28;20044;-80
2023/06/02 06:24:13;;;;;;;19.10;4.88;;;11.50;99.90;;;-144.05;48.59;56844.59;5056885;28;20029;-81
2023/06/02 06:26:40;;;;;;;12.70;4.53;;;11.50;99.90;;;-144.05;48.17;56855.22;5055958;28;20078;-84
2023/06/02 06:29:06;;;;;;;11.70;3.95;;;11.60;99.90;;;-144.05;48.23;56863.69;5057783;28;20020;-81
2023/06/02 06:31:34;;;;;;;13.70;4.25;;;11.50;99.90;;;-144.05;48.35;56833.97;5057023;28;20145;-82
2023/06/02 06:34:00;;;;;;;9.57;3.60;;;11.50;99.90;;;-144.05;48.51;56846.72;5057742;28;20044;-82
2023/06/02 06:36:26;;;;;;;11.32;4.28;;;11.50;99.90;;;-144.05;48.70;56861.56;5056177;28;20111;-82
2023/06/02 06:38:52;;;;;;;12.82;4.03;;;11.60;99.90;;;-144.05;48.19;56861.56;5056130;28;20033;-81
2023/06/02 06:41:18;;;;;;;13.98;3.70;;;11.60;99.90;;;-144.05;48.12;56846.72;5039288;28;20037;-82
2023/06/02 06:43:44;;;;;;;19.08;4.15;;;11.60;99.90;;;-144.05;48.68;56848.84;5055507;28;20401;-82
2023/06/02 06:46:10;;;;;;;11.13;4.00;;;11.60;99.90;;;-144.05;47.89;56840.34;5055660;28;20021;-84
2023/06/02 06:48:36;;;;;;;8.93;3.45;;;11.70;99.90;;;-144.05;47.33;56827.59;5057369;28;20036;-82
2023/06/02 06:51:02;;;;;;;10.82;4.43;;;11.70;99.90;;;-144.05;47.33;56840.34;5057509;28;20025;-81
2023/06/02 06:53:28;;;;;;;14.05;4.30;;;11.70;99.90;;;-144.05;47.08;56846.72;5056080;28;20033;-82
2023/06/02 06:55:54;;;;;;;14.27;3.50;;;11.80;99.90;;;-144.05;46.86;56844.59;5056956;28;20033;-83
2023/06/02 06:58:20;;;;;;;9.55;4.07;;;12.00;99.90;;;-144.05;46.49;56827.59;5057736;28;20036;-83
2023/06/02 07:00:46;;;;;;;16.50;4.30;;;12.10;99.90;;;-144.05;45.71;56861.56;5056515;28;20029;-82
2023/06/02 07:03:12;;;;;;;11.60;3.53;;;12.00;99.90;;;-144.05;46.13;56844.59;5058391;28;20132;-82
2023/06/02 07:05:38;;;;;;;11.13;4.30;;;12.10;99.90;;;-144.05;45.70;56848.84;5058950;28;20448;-82
2023/06/02 07:08:04;;;;;;;12.60;3.80;;;12.10;99.90;;;-144.05;45.97;56853.09;5057723;28;20029;-82
2023/06/02 07:10:30;;;;;;;9.93;3.67;;;12.20;99.90;;;-144.05;45.94;56823.34;5064053;28;20035;-80
2023/06/02 07:12:56;;;;;;;16.65;4.50;;;12.20;99.90;;;-144.05;45.67;56829.72;5061016;28;20108;-84
2023/06/02 07:15:22;;;;;;;12.95;4.07;;;12.20;99.90;;;-144.05;45.94;56836.09;5060184;28;20402;-82
2023/06/02 07:17:48;;;;;;;15.90;4.80;;;12.30;99.90;;;-144.05;45.58;56827.59;5058228;28;20033;-82
2023/06/02 07:20:14;;;;;;;14.57;3.70;;;12.40;99.90;;;-144.05;45.52;56859.47;5058118;28;20035;-84
2023/06/02 07:22:40;;;;;;;14.40;5.00;;;12.60;99.90;;;-144.05;44.50;56842.47;5057257;28;20067;-83
2023/06/02 07:25:07;;;;;;;14.98;6.90;;;12.60;99.90;;;-144.05;43.89;56848.84;5070659;28;20415;-84
2023/06/02 07:27:34;;;;;;;18.63;8.73;;;12.60;99.90;;;-144.05;43.92;56842.47;5061024;28;20036;-84
2023/06/02 07:30:00;;;;;;;14.15;7.05;;;12.70;99.90;;;-144.05;43.41;56848.84;5056726;28;20025;-84
2023/06/02 07:32:27;;;;;;;11.85;6.57;;;12.70;99.90;;;-144.05;43.44;56823.34;5040349;28;20029;-83
2023/06/02 07:34:53;;;;;;;11.18;6.38;;;12.90;99.90;;;-144.05;43.41;56829.72;5056271;28;20033;-80
2023/06/02 07:37:18;;;;;;;12.65;6.43;;;13.00;99.90;;;-144.05;43.54;56848.84;5057748;28;20387;-82
2023/06/02 07:39:45;;;;;;;15.55;7.90;;;13.10;99.90;;;-144.05;43.18;56848.84;5057743;28;20035;-82
2023/06/02 07:42:11;;;;;;;16.88;7.47;;;13.20;99.90;;;-144.05;42.96;56850.97;5055518;28;20125;-83
2023/06/02 07:44:37;;;;;;;14.73;5.97;;;13.20;99.90;;;-144.05;43.29;56823.34;5054895;28;20071;-83
2023/06/02 07:47:07;;;;;;;12.95;7.50;;;13.10;99.90;;;-144.05;43.13;56850.97;5053511;28;20115;-83
2023/06/02 07:49:35;;;;;;;15.35;7.85;;;13.00;99.90;;;-144.05;43.06;56855.22;5053311;28;20123;-81
2023/06/02 07:52:00;;;;;;;16.80;7.57;;;13.10;99.90;;;-144.05;43.21;56855.22;5054553;28;20099;-79
2023/06/02 07:54:26;;;;;;;13.48;6.25;;;13.10;99.90;;;-144.05;43.72;56829.72;5056250;28;20037;-82
2023/06/02 07:56:52;;;;;;;16.23;7.45;;;13.00;99.90;;;-144.05;43.80;56844.59;5054288;28;20082;-80
2023/06/02 07:59:18;;;;;;;13.70;7.55;;;12.90;99.90;;;-144.05;43.80;56857.34;5056287;28;20078;-81
2023/06/02 08:01:46;;;;;;;19.42;7.68;;;12.90;99.90;;;-144.05;44.41;56844.59;5059452;28;20029;-82
2023/06/02 08:04:12;;;;;;;15.65;7.68;;;13.00;99.90;;;-144.05;44.53;56831.84;5058263;28;20032;-82
2023/06/02 08:06:38;;;;;;;14.95;7.97;;;13.10;99.90;;;-144.05;44.54;56831.84;5055877;28;20529;-81
2023/06/02 08:09:04;;;;;;;14.27;9.18;;;13.20;99.90;;;-144.05;43.97;56827.59;5054893;28;20064;-82
2023/06/02 08:11:30;;;;;;;18.67;6.88;;;13.40;99.90;;;-144.05;43.08;56831.84;5054908;28;20033;-83
2023/06/02 08:13:56;;;;;;;15.85;6.93;;;13.50;99.90;;;-144.05;42.64;56844.59;5053930;28;20610;-82
2023/06/02 08:16:24;;;;;;;16.75;8.18;;;13.70;99.90;;;-144.05;42.73;56831.84;5054338;28;20086;-82
2023/06/02 08:18:50;;;;;;;15.23;9.57;;;14.00;99.90;;;-144.05;41.77;56853.09;5054225;28;20028;-81
2023/06/02 08:21:16;;;;;;;17.77;9.70;;;14.20;99.90;;;-144.05;40.80;56850.97;5054489;28;20037;-81
2023/06/02 08:23:42;;;;;;;16.30;9.68;;;14.30;99.90;;;-144.05;40.89;56838.22;5055012;28;20029;-82
2023/06/02 08:26:08;;;;;;;21.05;13.35;;;14.40;99.90;;;-144.05;39.94;56827.59;5056140;28;20150;-82
2023/06/02 08:28:37;;;;;;;17.83;11.20;;;14.50;99.90;;;-144.05;40.05;56821.22;5056247;28;20410;-81
2023/06/02 08:31:04;;;;;;;11.18;7.68;;;14.50;99.90;;;-144.05;40.14;56827.59;5055562;28;20030;-80
2023/06/02 08:33:33;;;;;;;11.65;5.60;;;15.10;99.90;;;-144.05;36.83;56840.34;5054844;28;20029;-83
2023/06/02 08:36:00;;;;;;;11.93;5.00;;;16.00;99.90;;;-144.05;36.35;56870.06;5054558;28;20346;-83
2023/06/02 08:38:29;;;;;;;11.65;4.80;;;16.20;99.90;;;-144.05;36.88;56870.06;5056290;28;20444;-81
2023/06/02 08:40:55;;;;;;;10.60;3.97;;;16.30;99.90;;;-144.05;36.31;56825.47;5054972;28;20125;-80
2023/06/02 08:43:21;;;;;;;13.05;3.78;;;16.00;99.90;;;-144.05;36.69;56874.31;5054919;28;20064;-83
2023/06/02 08:45:47;;;;;;;12.27;3.67;;;15.60;99.90;;;-144.05;38.14;56848.84;5055452;28;20228;-83
2023/06/02 08:48:17;;;;;;;9.00;3.83;;;15.50;99.90;;;-144.05;37.92;56831.84;5055653;28;20029;-83
2023/06/02 08:50:54;;;;;;;11.95;3.80;;;15.20;99.90;;;-144.05;39.03;56823.34;5055397;28;20045;-85
2023/06/02 08:53:24;;;;;;;10.32;3.85;;;15.10;99.90;;;-144.05;39.00;56867.94;5056581;28;20029;-83
2023/06/02 08:55:51;;;;;;;10.82;3.75;;;15.40;99.90;;;-144.05;37.59;56831.84;5054630;28;20035;-84
2023/06/02 08:58:17;;;;;;;8.93;4.00;;;16.20;99.90;;;-144.05;35.78;56870.06;5055729;28;20025;-83
2023/06/02 09:00:43;;;;;;;7.03;3.13;;;16.90;99.90;;;-144.05;34.77;56870.06;5055768;28;20025;-82
2023/06/02 09:03:14;;;;;;;10.13;3.47;;;17.10;99.90;;;-144.05;35.03;56867.94;5053876;28;20021;-82
2023/06/02 09:05:41;;;;;;;7.95;3.45;;;18.00;99.90;;;-144.05;33.86;56861.56;5055913;28;20383;-82
2023/06/02 09:08:14;;;;;;;10.75;3.90;;;18.70;99.90;;;-144.05;32.43;56861.56;5054463;28;20506;-83
2023/06/02 09:10:42;;;;;;;8.43;3.72;;;18.90;96.40;;;-144.05;32.02;56897.69;5056165;28;20033;-82
2023/06/02 09:13:33;;;;;;;14.15;3.47;;;19.20;95.60;;;-144.05;33.65;56887.06;5056390;28;20143;-82
2023/06/02 09:16:03;;;;;;;9.65;3.25;;;18.50;97.20;;;-144.05;34.06;56872.19;5057930;28;20099;-82
2023/06/02 09:18:30;;;;;;;8.93;3.38;;;18.30;98.40;;;-144.05;35.40;56870.06;5055454;28;20072;-82
2023/06/02 09:20:59;;;;;;;10.63;3.72;;;17.80;98.20;;;-144.05;35.05;56857.34;5055945;28;20032;-83
2023/06/02 09:23:45;;;;;;;10.90;3.42;;;17.80;99.30;;;-144.05;34.73;56876.44;5057892;28;20035;-84
2023/06/02 09:26:25;;;;;;;8.07;3.42;;;17.70;98.90;;;-144.05;35.00;56891.31;5057704;28;20061;-83
2023/06/02 09:29:13;;;;;;;9.00;3.92;;;17.80;99.10;;;-144.05;35.46;56844.59;5058129;28;20129;-83
2023/06/02 09:31:54;;;;;;;13.57;4.03;;;17.30;99.00;;;-144.05;36.62;56819.09;5058667;28;20029;-83
2023/06/02 09:34:23;;;;;;;10.10;4.13;;;16.90;99.90;;;-144.05;36.75;56859.47;5058871;28;20032;-83
2023/06/02 09:36:53;;;;;;;10.35;3.67;;;16.90;99.90;;;-144.05;36.94;56855.22;5058485;28;20036;-81
2023/06/02 09:39:38;;;;;;;10.30;3.38;;;16.90;99.90;;;-144.05;36.02;56863.69;5059027;28;20025;-84
2023/06/02 09:42:06;;;;;;;12.18;3.95;;;17.40;99.90;;;-144.05;36.11;56876.44;5065580;28;20033;-84
2023/06/02 09:44:32;;;;;;;7.75;3.78;;;17.60;99.90;;;-144.05;36.11;56865.81;5068837;28;20060;-84
2023/06/02 09:46:59;;;;;;;13.70;4.43;;;17.50;99.90;;;-144.05;35.31;56859.47;5062394;28;20475;-85
2023/06/02 09:49:25;;;;;;;11.88;4.00;;;17.70;99.90;;;-144.05;35.59;56878.56;5064215;28;20075;-82
2023/06/02 09:51:51;;;;;;;9.82;4.38;;;17.70;99.90;;;-144.05;35.94;56859.47;5064297;28;20552;-83
2023/06/02 09:54:17;;;;;;;10.43;4.20;;;17.60;99.90;;;-144.05;35.78;56836.09;5064177;28;20428;-83
2023/06/02 09:56:46;;;;;;;14.05;4.22;;;17.70;99.90;;;-144.05;35.09;56853.09;5060316;28;20074;-83
2023/06/02 09:59:12;;;;;;;14.63;5.32;;;18.10;99.00;;;-144.05;34.51;56882.81;5059978;28;20029;-82
2023/06/02 10:01:38;;;;;;;14.80;4.75;;;18.90;98.40;;;-144.05;33.89;56872.19;5064249;28;20395;-82